Time;durP1;ratioP1;P1;durP2;ratioP2;P2;SDS_P1;SDS_P2;PMS_P1;PMS_P2;Temp;Humidity;BMP_temperature;BMP_pressure;BME280_temperature;BME280_humidity;BME280_pressure;Samples;Min_cycle;Max_cycle;Signal;HPM_P1;HPM_P2
2022/08/14 00:02:11;;;;;;;10.23;9.93;;;20.70;99.90;;;;;;5024732;28;20300;-80
2022/08/14 00:04:43;;;;;;;10.48;10.18;;;20.70;99.90;;;;;;5023958;28;20212;-81
2022/08/14 00:07:12;;;;;;;10.38;10.07;;;20.60;99.90;;;;;;5023635;28;20734;-80
2022/08/14 00:09:41;;;;;;;10.30;10.00;;;20.60;99.90;;;;;;5024130;28;20228;-81
2022/08/14 00:12:10;;;;;;;10.05;9.75;;;20.50;99.90;;;;;;5022502;28;20231;-80
2022/08/14 00:17:27;;;;;;;10.35;10.05;;;20.40;99.90;;;;;;5022675;28;20228;-81
2022/08/14 00:19:57;;;;;;;10.02;9.73;;;20.40;99.90;;;;;;5022503;28;20319;-81
2022/08/14 00:22:26;;;;;;;10.18;9.88;;;20.30;99.90;;;;;;5022693;28;20291;-80
2022/08/14 00:24:55;;;;;;;10.30;10.00;;;20.30;99.90;;;;;;5022229;28;20276;-80
2022/08/14 00:27:25;;;;;;;10.05;9.75;;;20.20;99.90;;;;;;5022093;28;20229;-81
2022/08/14 00:32:41;;;;;;;10.10;9.80;;;20.10;99.90;;;;;;5021306;28;20303;-80
2022/08/14 00:35:10;;;;;;;10.23;9.93;;;20.10;99.90;;;;;;5020587;28;20239;-80
2022/08/14 00:37:40;;;;;;;10.02;9.73;;;20.00;99.90;;;;;;5020669;28;20314;-81
2022/08/14 00:40:11;;;;;;;10.05;9.75;;;20.00;99.90;;;;;;5021420;28;20244;-80
2022/08/14 00:42:40;;;;;;;10.05;9.75;;;19.90;99.90;;;;;;5021249;28;20327;-81
2022/08/14 00:45:17;;;;;;;10.30;10.00;;;19.80;99.90;;;;;;5020150;28;20238;-80
2022/08/14 00:47:47;;;;;;;9.90;9.60;;;19.80;99.90;;;;;;5020911;28;20234;-80
2022/08/14 00:50:18;;;;;;;10.07;9.77;;;19.80;99.90;;;;;;5021343;28;20236;-80
2022/08/14 00:52:46;;;;;;;10.20;9.90;;;19.70;99.90;;;;;;5021687;28;20220;-80
2022/08/14 00:55:15;;;;;;;9.95;9.65;;;19.60;99.90;;;;;;5021749;28;20284;-81
2022/08/14 00:57:44;;;;;;;10.10;9.80;;;19.60;99.90;;;;;;5022065;28;20236;-81
2022/08/14 01:00:16;;;;;;;10.10;9.80;;;19.60;99.90;;;;;;5022615;28;20250;-80
2022/08/14 01:02:45;;;;;;;10.10;9.80;;;19.60;99.90;;;;;;5022607;28;20369;-81
2022/08/14 01:05:22;;;;;;;10.10;9.80;;;19.50;99.90;;;;;;5021309;28;20320;-80
2022/08/14 01:07:53;;;;;;;10.10;9.80;;;19.50;99.90;;;;;;5022100;28;20236;-81
2022/08/14 01:10:21;;;;;;;10.02;9.73;;;19.40;99.90;;;;;;5021299;28;20323;-80
2022/08/14 01:12:50;;;;;;;10.00;9.70;;;19.40;99.90;;;;;;5021428;28;20318;-80
2022/08/14 01:15:29;;;;;;;10.20;9.90;;;19.40;99.90;;;;;;5019745;28;20220;-80
2022/08/14 01:23:31;;;;;;;10.07;9.77;;;19.30;99.90;;;;;;5020916;28;20220;-81
2022/08/14 01:26:01;;;;;;;9.80;9.50;;;19.30;99.90;;;;;;5020123;28;20339;-80
2022/08/14 01:28:30;;;;;;;9.98;9.68;;;19.20;99.90;;;;;;5019955;28;20263;-80
2022/08/14 01:31:00;;;;;;;9.93;9.63;;;19.20;99.90;;;;;;5019773;28;21058;-80
2022/08/14 01:33:29;;;;;;;9.95;9.65;;;19.20;99.90;;;;;;5020052;28;20236;-81
2022/08/14 01:35:59;;;;;;;10.00;9.70;;;19.20;99.90;;;;;;5021106;28;20228;-81
2022/08/14 01:38:32;;;;;;;10.00;9.70;;;19.10;99.90;;;;;;5020711;28;20236;-81
2022/08/14 01:41:01;;;;;;;10.00;9.70;;;19.10;99.90;;;;;;5019699;28;20251;-80
2022/08/14 01:43:29;;;;;;;10.00;9.70;;;19.10;99.90;;;;;;5019881;28;20244;-80
2022/08/14 01:45:59;;;;;;;10.10;9.80;;;19.00;99.90;;;;;;5018758;28;20239;-80
2022/08/14 01:48:29;;;;;;;10.10;9.80;;;19.00;99.90;;;;;;5022702;28;20231;-80
2022/08/14 01:51:00;;;;;;;9.80;9.50;;;19.00;99.90;;;;;;5024758;28;20240;-79
2022/08/14 01:56:17;;;;;;;10.07;9.77;;;19.00;99.90;;;;;;5025695;28;20790;-79
2022/08/14 01:58:50;;;;;;;10.10;9.80;;;18.90;99.90;;;;;;5025525;28;20250;-80
2022/08/14 02:01:20;;;;;;;10.10;9.80;;;18.90;99.90;;;;;;5024148;28;20232;-80
2022/08/14 02:03:50;;;;;;;10.02;9.73;;;18.90;99.90;;;;;;5022918;28;20322;-80
2022/08/14 02:06:20;;;;;;;9.90;9.60;;;18.90;99.90;;;;;;5022200;28;20240;-80
2022/08/14 02:09:01;;;;;;;9.93;9.63;;;18.80;99.90;;;;;;5022746;28;20242;-80
2022/08/14 02:11:28;;;;;;;10.10;9.80;;;18.90;99.90;;;;;;5022478;28;20246;-80
2022/08/14 02:13:59;;;;;;;9.98;9.68;;;18.90;99.90;;;;;;5022351;28;20235;-80
2022/08/14 02:16:32;;;;;;;10.00;9.70;;;18.80;99.90;;;;;;5021502;28;20224;-80
2022/08/14 02:19:05;;;;;;;10.00;9.70;;;18.80;99.90;;;;;;5021908;28;20240;-80
2022/08/14 02:21:35;;;;;;;10.00;9.70;;;18.80;99.90;;;;;;5022406;28;20259;-80
2022/08/14 02:24:13;;;;;;;9.70;9.40;;;18.80;99.90;;;;;;5022021;28;20228;-79
2022/08/14 02:26:46;;;;;;;9.63;9.32;;;18.80;99.90;;;;;;5021781;28;20238;-82
2022/08/14 02:29:21;;;;;;;9.77;9.48;;;18.70;99.90;;;;;;5020565;28;20250;-79
2022/08/14 02:31:51;;;;;;;10.20;9.90;;;18.80;99.90;;;;;;5023534;28;20232;-80
2022/08/14 02:34:30;;;;;;;10.02;9.73;;;18.70;99.90;;;;;;5026832;28;20260;-80
2022/08/14 02:37:08;;;;;;;9.90;9.60;;;18.70;99.90;;;;;;5026617;28;20220;-80
2022/08/14 02:39:45;;;;;;;10.00;9.70;;;18.70;99.90;;;;;;5023450;28;20235;-80
2022/08/14 02:42:24;;;;;;;10.00;9.70;;;18.60;99.90;;;;;;5022998;28;20303;-80
2022/08/14 02:44:52;;;;;;;9.95;9.65;;;18.60;99.90;;;;;;5021696;28;20322;-80
2022/08/14 02:47:21;;;;;;;10.18;9.88;;;18.60;99.90;;;;;;5022021;28;20235;-80
2022/08/14 02:49:53;;;;;;;10.30;10.00;;;18.50;99.90;;;;;;5022305;28;20248;-79
2022/08/14 02:52:20;;;;;;;10.30;10.00;;;18.40;99.90;;;;;;5021692;28;20719;-80
2022/08/14 02:54:59;;;;;;;10.50;10.20;;;18.40;99.90;;;;;;5021193;28;20232;-82
2022/08/14 02:57:28;;;;;;;10.50;10.20;;;18.40;99.90;;;;;;5022417;28;20263;-81
2022/08/14 02:59:58;;;;;;;10.30;10.00;;;18.30;99.90;;;;;;5022749;28;20239;-81
2022/08/14 03:02:29;;;;;;;10.35;10.05;;;18.30;99.90;;;;;;5022534;28;20235;-81
2022/08/14 03:04:57;;;;;;;10.48;10.18;;;18.30;99.90;;;;;;5022559;28;20239;-81
2022/08/14 03:07:26;;;;;;;10.10;9.80;;;18.20;99.90;;;;;;5021827;28;20287;-81
2022/08/14 03:09:57;;;;;;;10.20;9.90;;;18.20;99.90;;;;;;5022132;28;20240;-81
2022/08/14 03:12:25;;;;;;;10.40;10.10;;;18.20;99.90;;;;;;5022418;28;20258;-81
2022/08/14 03:14:54;;;;;;;10.30;10.00;;;18.10;99.90;;;;;;5021940;28;20228;-81
2022/08/14 03:17:25;;;;;;;10.23;9.93;;;18.10;99.90;;;;;;5022135;28;20280;-81
2022/08/14 03:19:53;;;;;;;10.38;10.07;;;18.00;99.90;;;;;;5022185;28;20242;-80
2022/08/14 03:22:22;;;;;;;10.50;10.20;;;18.00;99.90;;;;;;5022277;28;20250;-81
2022/08/14 03:24:52;;;;;;;10.40;10.10;;;17.90;99.90;;;;;;5021312;28;20330;-81
2022/08/14 03:27:39;;;;;;;10.25;9.95;;;17.90;99.90;;;;;;5021733;28;20244;-81
2022/08/14 03:30:09;;;;;;;10.30;10.00;;;17.90;99.90;;;;;;5023401;28;20240;-81
2022/08/14 03:32:38;;;;;;;10.50;10.20;;;17.80;99.90;;;;;;5022643;28;20324;-81
2022/08/14 03:35:08;;;;;;;10.50;10.20;;;17.80;99.90;;;;;;5022244;28;20240;-81
2022/08/14 03:37:35;;;;;;;10.35;10.05;;;17.80;99.90;;;;;;5021832;28;20228;-80
2022/08/14 03:40:06;;;;;;;10.55;10.25;;;17.80;99.90;;;;;;5022180;28;20240;-81
2022/08/14 03:42:46;;;;;;;10.38;10.07;;;17.70;99.90;;;;;;5022127;28;20267;-81
2022/08/14 03:45:14;;;;;;;10.30;10.00;;;17.70;99.90;;;;;;5021491;28;20238;-81
2022/08/14 03:47:43;;;;;;;10.30;10.00;;;17.60;99.90;;;;;;5021995;28;20235;-81
2022/08/14 03:50:13;;;;;;;10.52;10.23;;;17.60;99.90;;;;;;5021155;28;20243;-81
2022/08/14 03:52:43;;;;;;;10.60;10.30;;;17.60;99.90;;;;;;5022639;28;20323;-81
2022/08/14 03:55:12;;;;;;;10.52;10.23;;;17.60;99.90;;;;;;5021617;28;20239;-81
2022/08/14 03:57:43;;;;;;;10.50;10.20;;;17.50;99.90;;;;;;5021337;28;20272;-81
2022/08/14 04:00:13;;;;;;;10.50;10.20;;;17.50;99.90;;;;;;5022395;28;20271;-81
2022/08/14 04:02:41;;;;;;;10.70;10.40;;;17.50;99.90;;;;;;5022128;28;20286;-81
2022/08/14 04:05:11;;;;;;;10.40;10.10;;;17.50;99.90;;;;;;5020662;28;20236;-81
2022/08/14 04:07:41;;;;;;;10.20;9.90;;;17.40;99.90;;;;;;5021710;28;20243;-81
2022/08/14 04:10:10;;;;;;;10.23;9.93;;;17.40;99.90;;;;;;5021752;28;20232;-81
2022/08/14 04:12:40;;;;;;;10.30;10.00;;;17.40;99.90;;;;;;5021003;28;20259;-81
2022/08/14 04:15:13;;;;;;;10.20;9.90;;;17.50;99.90;;;;;;5021200;28;20232;-81
2022/08/14 04:17:42;;;;;;;10.38;10.07;;;17.50;99.90;;;;;;5021714;28;20243;-81
2022/08/14 04:20:11;;;;;;;10.35;10.05;;;17.50;99.90;;;;;;5021513;28;20231;-81
2022/08/14 04:22:41;;;;;;;10.32;10.02;;;17.50;99.90;;;;;;5021333;28;20232;-81
2022/08/14 04:25:09;;;;;;;10.65;10.35;;;17.50;99.90;;;;;;5021312;28;20228;-80
2022/08/14 04:27:37;;;;;;;10.45;10.15;;;17.50;99.90;;;;;;5020481;28;20323;-81
2022/08/14 04:30:08;;;;;;;10.45;10.15;;;17.60;99.90;;;;;;5021120;28;20246;-81
2022/08/14 04:32:36;;;;;;;10.45;10.15;;;17.60;99.90;;;;;;5021612;28;20232;-81
2022/08/14 04:35:04;;;;;;;10.15;9.85;;;17.70;99.90;;;;;;5021351;28;20328;-81
2022/08/14 04:45:48;;;;;;;10.20;9.90;;;17.80;99.90;;;;;;5025027;28;20208;-80
2022/08/14 04:48:19;;;;;;;10.10;9.80;;;17.80;99.90;;;;;;5033128;28;20271;-81
2022/08/14 04:50:50;;;;;;;10.20;9.90;;;17.90;99.90;;;;;;5035087;28;20243;-80
2022/08/14 04:53:23;;;;;;;10.45;10.15;;;17.90;99.90;;;;;;5032170;28;20263;-80
2022/08/14 04:55:53;;;;;;;10.30;10.00;;;17.90;99.90;;;;;;5026037;28;20315;-81
2022/08/14 04:58:23;;;;;;;10.30;10.00;;;18.00;99.90;;;;;;5026404;28;20357;-81
2022/08/14 05:00:53;;;;;;;10.40;10.10;;;18.00;99.90;;;;;;5030445;28;20223;-79
2022/08/14 05:03:22;;;;;;;9.95;9.65;;;18.10;99.90;;;;;;5031485;28;20299;-80
2022/08/14 05:05:51;;;;;;;10.18;9.88;;;18.20;99.90;;;;;;5035286;28;20244;-80
2022/08/14 05:08:21;;;;;;;9.82;9.52;;;18.20;99.90;;;;;;5036257;28;20326;-81
2022/08/14 05:10:51;;;;;;;10.13;9.82;;;18.30;99.90;;;;;;5037146;28;20224;-80
2022/08/14 05:13:19;;;;;;;10.00;9.70;;;18.40;99.90;;;;;;5037090;28;20304;-80
2022/08/14 05:15:49;;;;;;;10.02;9.73;;;18.40;99.90;;;;;;5037378;28;20244;-81
2022/08/14 05:18:29;;;;;;;10.00;9.70;;;18.50;99.90;;;;;;5037727;28;20208;-81
2022/08/14 05:20:58;;;;;;;10.00;9.70;;;18.60;99.90;;;;;;5037287;28;20232;-81
2022/08/14 05:23:28;;;;;;;10.07;9.77;;;18.50;99.90;;;;;;5037981;28;20263;-80
2022/08/14 05:26:11;;;;;;;10.10;9.80;;;18.60;99.90;;;;;;5042373;28;20250;-80
2022/08/14 05:28:43;;;;;;;10.07;9.77;;;18.70;99.90;;;;;;5042323;28;20220;-80
2022/08/14 05:31:12;;;;;;;10.20;9.90;;;18.70;99.90;;;;;;5043359;28;20228;-80
2022/08/14 05:33:52;;;;;;;10.20;9.90;;;18.80;99.90;;;;;;5043552;28;20262;-80
2022/08/14 05:36:19;;;;;;;10.40;10.10;;;18.90;99.90;;;;;;5037966;28;20251;-80
2022/08/14 05:38:48;;;;;;;10.23;9.93;;;18.90;99.90;;;;;;5027681;28;20244;-79
2022/08/14 05:41:18;;;;;;;10.30;10.00;;;19.00;99.90;;;;;;5028318;28;20319;-81
2022/08/14 05:43:47;;;;;;;10.30;10.00;;;19.10;99.90;;;;;;5028406;28;20247;-81
2022/08/14 05:46:21;;;;;;;10.07;9.77;;;19.20;99.90;;;;;;5028062;28;20232;-81
2022/08/14 05:48:53;;;;;;;10.00;9.70;;;19.20;99.90;;;;;;5028330;28;20243;-81
2022/08/14 05:51:25;;;;;;;10.02;9.73;;;19.30;99.90;;;;;;5028178;28;20238;-81
2022/08/14 05:53:56;;;;;;;9.90;9.60;;;19.40;99.90;;;;;;5028868;28;20236;-81
2022/08/14 05:56:25;;;;;;;9.90;9.60;;;19.60;99.90;;;;;;5027310;28;20239;-80
2022/08/14 05:58:53;;;;;;;9.63;9.32;;;19.60;99.90;;;;;;5027932;28;20238;-80
2022/08/14 06:01:23;;;;;;;9.60;9.30;;;19.70;99.90;;;;;;5027817;28;20296;-80
2022/08/14 06:03:54;;;;;;;9.75;9.45;;;19.80;99.90;;;;;;5027011;28;20224;-81
2022/08/14 06:06:23;;;;;;;9.70;9.40;;;19.90;99.90;;;;;;5026615;28;20315;-81
2022/08/14 06:08:52;;;;;;;9.82;9.52;;;20.10;99.90;;;;;;5026554;28;20253;-80
2022/08/14 06:11:22;;;;;;;9.50;9.20;;;20.20;99.90;;;;;;5026234;28;20238;-81
2022/08/14 06:13:51;;;;;;;9.70;9.40;;;20.30;99.90;;;;;;5027102;28;20232;-80
2022/08/14 06:16:20;;;;;;;9.70;9.40;;;20.40;99.90;;;;;;5026203;28;20327;-81
2022/08/14 06:18:51;;;;;;;9.55;9.25;;;20.50;99.90;;;;;;5028361;28;20269;-81
2022/08/14 06:21:23;;;;;;;9.43;9.13;;;20.60;99.90;;;;;;5027268;28;20267;-81
2022/08/14 06:23:50;;;;;;;9.82;9.52;;;20.70;99.90;;;;;;5027463;28;20248;-81
2022/08/14 06:26:18;;;;;;;9.70;9.40;;;20.80;99.90;;;;;;5027476;28;20350;-81
2022/08/14 06:28:48;;;;;;;9.43;9.13;;;20.90;99.90;;;;;;5026008;28;20244;-80
2022/08/14 06:31:17;;;;;;;9.70;9.40;;;21.00;99.90;;;;;;5026403;28;20232;-81
2022/08/14 06:33:47;;;;;;;10.10;9.80;;;21.10;99.90;;;;;;5027249;28;20236;-81
2022/08/14 06:36:19;;;;;;;9.77;9.48;;;21.30;99.90;;;;;;5027043;28;20240;-81
2022/08/14 06:38:47;;;;;;;9.98;9.68;;;21.30;99.90;;;;;;5028296;28;20247;-81
2022/08/14 06:41:15;;;;;;;10.00;9.70;;;21.50;99.90;;;;;;5026297;28;20236;-81
2022/08/14 06:43:44;;;;;;;9.90;9.60;;;21.60;99.90;;;;;;5023872;28;21083;-81
2022/08/14 06:46:14;;;;;;;10.00;9.70;;;21.70;99.90;;;;;;5022844;28;20224;-81
2022/08/14 06:48:43;;;;;;;9.90;9.60;;;21.80;99.90;;;;;;5022560;28;20308;-81
2022/08/14 06:51:13;;;;;;;9.82;9.52;;;21.90;99.90;;;;;;5023207;28;20259;-81
2022/08/14 06:53:51;;;;;;;9.98;9.68;;;21.90;99.90;;;;;;5022797;28;20252;-81
2022/08/14 06:56:20;;;;;;;9.73;9.43;;;22.10;99.90;;;;;;5022153;28;20228;-81
2022/08/14 06:58:50;;;;;;;10.00;9.70;;;22.10;99.90;;;;;;5023074;28;20232;-81
2022/08/14 07:06:48;;;;;;;9.90;9.60;;;22.60;99.90;;;;;;4992197;28;20286;-81
2022/08/14 07:09:17;;;;;;;9.93;9.63;;;22.60;99.90;;;;;;5023364;28;20204;-81
2022/08/14 07:11:44;;;;;;;10.10;9.80;;;22.70;99.90;;;;;;5023701;28;20246;-80
2022/08/14 07:14:13;;;;;;;10.05;9.75;;;22.70;99.90;;;;;;5023156;28;20291;-81
2022/08/14 07:16:43;;;;;;;10.07;9.77;;;22.70;99.90;;;;;;5022515;28;20245;-81
2022/08/14 07:19:12;;;;;;;10.15;9.85;;;22.70;99.90;;;;;;5022725;28;20239;-81
2022/08/14 07:21:41;;;;;;;10.32;10.02;;;22.80;99.90;;;;;;5023084;28;20228;-81
2022/08/14 07:24:10;;;;;;;10.48;10.18;;;23.00;99.90;;;;;;5023223;28;20238;-81
2022/08/14 07:26:49;;;;;;;10.35;10.05;;;23.10;99.90;;;;;;5022183;28;20235;-81
2022/08/14 07:29:18;;;;;;;10.30;10.00;;;23.20;99.90;;;;;;5022709;28;20279;-81
2022/08/14 07:31:47;;;;;;;10.30;10.00;;;23.30;99.90;;;;;;5022900;28;20236;-81
2022/08/14 07:34:17;;;;;;;10.38;10.07;;;23.40;99.90;;;;;;5022710;28;20232;-81
2022/08/14 07:36:47;;;;;;;10.38;10.07;;;23.60;99.90;;;;;;5023072;28;20232;-81
2022/08/14 07:39:16;;;;;;;10.40;10.10;;;23.60;99.90;;;;;;5021910;28;20308;-81
2022/08/14 07:41:56;;;;;;;10.57;10.27;;;23.70;99.90;;;;;;5022572;28;20235;-81
2022/08/14 07:44:24;;;;;;;10.68;10.38;;;23.80;99.90;;;;;;5022713;28;20240;-82
2022/08/14 07:46:53;;;;;;;10.77;10.48;;;23.90;99.90;;;;;;5021644;28;20322;-81
2022/08/14 07:49:23;;;;;;;10.80;10.50;;;23.90;99.90;;;;;;5022277;28;20259;-82
2022/08/14 07:51:52;;;;;;;10.70;10.40;;;24.10;99.90;;;;;;5022645;28;20261;-80
2022/08/14 07:54:21;;;;;;;10.48;10.18;;;24.20;99.90;;;;;;5021935;28;20327;-81
2022/08/14 07:56:53;;;;;;;10.35;10.05;;;24.30;99.90;;;;;;5022120;28;20319;-80
2022/08/14 07:59:23;;;;;;;10.60;10.30;;;24.40;99.90;;;;;;5021733;28;20377;-80
2022/08/14 08:01:52;;;;;;;10.70;10.40;;;24.40;99.90;;;;;;5022195;28;20233;-80
2022/08/14 08:04:30;;;;;;;10.30;10.00;;;24.50;99.90;;;;;;5027909;28;20323;-80
2022/08/14 08:06:59;;;;;;;10.50;10.20;;;24.60;99.90;;;;;;5036486;28;20223;-80
2022/08/14 08:09:31;;;;;;;10.50;10.20;;;24.80;99.90;;;;;;5025903;28;20235;-80
2022/08/14 08:12:10;;;;;;;10.43;10.13;;;24.90;99.90;;;;;;5024342;28;20236;-81
2022/08/14 08:14:41;;;;;;;10.80;10.50;;;25.10;99.90;;;;;;5023719;28;20240;-81
2022/08/14 08:17:09;;;;;;;10.55;10.25;;;25.30;99.90;;;;;;5023666;28;20255;-80
2022/08/14 08:19:38;;;;;;;10.60;10.30;;;25.30;99.90;;;;;;5023455;28;20242;-80
2022/08/14 08:22:05;;;;;;;10.50;10.20;;;25.40;99.90;;;;;;5022550;28;20234;-80
2022/08/14 08:24:34;;;;;;;10.60;10.30;;;25.60;99.90;;;;;;5022996;28;20235;-80
2022/08/14 08:27:15;;;;;;;10.45;10.15;;;25.70;99.90;;;;;;5021849;28;20228;-81
2022/08/14 08:29:43;;;;;;;10.60;10.30;;;25.80;99.90;;;;;;5023119;28;20228;-81
2022/08/14 08:32:11;;;;;;;10.43;10.13;;;25.80;99.90;;;;;;5031152;28;20303;-80
2022/08/14 08:34:47;;;;;;;10.38;10.07;;;26.00;99.90;;;;;;5033981;28;20326;-79
2022/08/14 08:37:15;;;;;;;10.18;9.88;;;26.20;99.90;;;;;;5034259;28;20238;-80
2022/08/14 08:39:49;;;;;;;10.32;10.02;;;26.40;99.90;;;;;;5023602;28;20232;-80
2022/08/14 08:42:36;;;;;;;10.25;9.95;;;26.50;99.90;;;;;;5023039;28;20323;-80
2022/08/14 08:45:05;;;;;;;10.45;10.15;;;26.70;99.90;;;;;;5021299;28;20239;-80
2022/08/14 08:47:43;;;;;;;10.60;10.30;;;26.70;99.90;;;;;;5022788;28;20247;-80
2022/08/14 08:50:21;;;;;;;10.30;10.00;;;26.90;99.90;;;;;;5024273;28;20227;-80
2022/08/14 08:52:51;;;;;;;10.68;10.38;;;27.10;99.90;;;;;;5027618;28;20222;-80
2022/08/14 08:55:32;;;;;;;10.70;10.40;;;27.30;99.90;;;;;;5026973;28;20240;-79
2022/08/14 08:58:04;;;;;;;10.68;10.38;;;27.60;99.90;;;;;;5024063;28;20327;-80
2022/08/14 09:00:36;;;;;;;10.80;10.50;;;27.60;99.90;;;;;;5024225;28;20229;-80
2022/08/14 09:03:16;;;;;;;10.50;10.20;;;27.80;99.90;;;;;;5024257;28;20295;-79
2022/08/14 09:05:53;;;;;;;10.70;10.40;;;28.00;99.90;;;;;;5023330;28;20242;-80
2022/08/14 09:08:24;;;;;;;10.55;10.25;;;28.10;99.90;;;;;;5022882;28;20242;-79
2022/08/14 09:10:53;;;;;;;10.50;10.20;;;28.30;99.90;;;;;;5021697;28;20224;-81
2022/08/14 09:16:08;;;;;;;10.70;10.40;;;28.50;99.90;;;;;;5020387;28;20307;-81
2022/08/14 09:18:38;;;;;;;10.70;10.40;;;28.60;99.90;;;;;;5021429;28;20271;-79
2022/08/14 09:21:07;;;;;;;10.50;10.20;;;28.40;99.90;;;;;;5022380;28;20326;-81
2022/08/14 09:23:36;;;;;;;10.40;10.10;;;28.30;99.90;;;;;;5022830;28;20263;-80
2022/08/14 09:26:06;;;;;;;10.60;10.30;;;28.20;99.90;;;;;;5022981;28;20236;-81
2022/08/14 09:28:45;;;;;;;10.88;10.57;;;28.20;99.90;;;;;;5020227;28;20327;-81
2022/08/14 09:31:15;;;;;;;10.70;10.40;;;28.50;99.90;;;;;;5020422;28;20312;-81
2022/08/14 09:34:03;;;;;;;10.48;10.18;;;28.80;99.90;;;;;;5020724;28;20239;-81
2022/08/14 09:36:59;;;;;;;10.50;10.20;;;29.20;99.90;;;;;;5020341;28;20232;-81
2022/08/14 09:39:44;;;;;;;10.30;10.00;;;29.50;99.90;;;;;;5020266;28;20338;-81
2022/08/14 09:42:40;;;;;;;10.55;10.25;;;29.70;99.90;;;;;;5021065;28;20224;-81
2022/08/14 09:45:18;;;;;;;10.43;10.13;;;29.70;99.90;;;;;;5019760;28;20331;-81
2022/08/14 09:47:56;;;;;;;10.18;9.88;;;29.60;99.90;;;;;;5020750;28;20271;-81
2022/08/14 09:50:28;;;;;;;10.38;10.07;;;29.80;99.90;;;;;;5020974;28;20255;-82
2022/08/14 09:53:04;;;;;;;10.55;10.25;;;29.90;99.90;;;;;;5020849;28;20241;-81
2022/08/14 09:55:36;;;;;;;10.35;10.05;;;29.80;99.90;;;;;;5020329;28;20303;-81
2022/08/14 09:58:13;;;;;;;10.55;10.25;;;29.70;99.90;;;;;;5020392;28;20319;-81
2022/08/14 10:00:50;;;;;;;10.30;10.00;;;29.70;99.90;;;;;;5024835;28;20291;-81
2022/08/14 10:03:32;;;;;;;10.20;9.90;;;30.10;99.90;;;;;;5021132;28;20232;-81
2022/08/14 10:06:10;;;;;;;10.20;9.90;;;30.30;99.90;;;;;;5020399;28;20267;-80
2022/08/14 10:08:46;;;;;;;10.60;10.30;;;30.40;99.90;;;;;;5020392;28;20246;-79
2022/08/14 10:11:18;;;;;;;10.60;10.30;;;29.90;99.90;;;;;;5022465;28;20227;-80
2022/08/14 10:13:50;;;;;;;10.63;10.32;;;29.80;99.90;;;;;;5023625;28;20302;-80
2022/08/14 10:16:27;;;;;;;10.65;10.35;;;29.90;99.90;;;;;;5023378;28;20240;-80
2022/08/14 10:22:00;;;;;;;10.93;10.63;;;30.50;99.90;;;;;;5023545;28;20240;-81
2022/08/14 10:24:37;;;;;;;10.77;10.48;;;31.00;99.90;;;;;;5023722;28;20226;-82
2022/08/14 10:27:17;;;;;;;10.85;10.55;;;31.50;99.90;;;;;;5022907;28;20236;-81
2022/08/14 10:29:53;;;;;;;10.70;10.40;;;31.70;99.90;;;;;;5022935;28;20240;-81
2022/08/14 10:32:24;;;;;;;10.60;10.30;;;31.30;99.90;;;;;;5023102;28;20250;-81
2022/08/14 10:34:52;;;;;;;10.80;10.50;;;31.30;99.90;;;;;;5022872;28;20239;-81
2022/08/14 10:37:20;;;;;;;10.75;10.45;;;30.90;99.90;;;;;;5026513;28;20228;-81
2022/08/14 10:40:00;;;;;;;10.73;10.43;;;30.50;99.90;;;;;;5047419;22;20299;-83
2022/08/14 10:42:36;;;;;;;11.10;10.80;;;30.40;99.90;;;;;;5024796;28;20235;-83
2022/08/14 10:45:19;;;;;;;10.93;10.63;;;30.30;99.90;;;;;;5024726;28;20223;-83
2022/08/14 10:47:54;;;;;;;10.88;10.57;;;30.40;99.90;;;;;;5025070;28;20239;-83
2022/08/14 10:50:33;;;;;;;10.80;10.50;;;30.80;99.90;;;;;;5010884;28;20272;-84
2022/08/14 10:53:04;;;;;;;10.90;10.60;;;31.30;99.90;;;;;;5004412;28;20303;-84
2022/08/14 10:58:28;;;;;;;11.10;10.80;;;31.60;99.90;;;;;;5006213;28;20257;-84
2022/08/14 11:01:06;;;;;;;11.30;11.00;;;31.40;99.90;;;;;;5006342;28;20240;-84
2022/08/14 11:03:47;;;;;;;10.88;10.57;;;31.10;99.90;;;;;;5006874;28;20271;-84
2022/08/14 11:06:22;;;;;;;10.80;10.50;;;31.30;99.90;;;;;;5006588;28;20236;-83
2022/08/14 11:08:50;;;;;;;10.75;10.45;;;31.20;99.90;;;;;;5007063;28;20244;-84
2022/08/14 11:11:21;;;;;;;10.85;10.55;;;31.00;99.90;;;;;;5007546;28;20341;-84
2022/08/14 11:13:49;;;;;;;10.77;10.48;;;30.70;99.90;;;;;;5007095;28;20235;-84
2022/08/14 11:16:20;;;;;;;10.57;10.27;;;30.40;99.90;;;;;;5005893;28;20320;-84
2022/08/14 11:18:57;;;;;;;10.60;10.30;;;30.30;99.90;;;;;;5005205;28;20268;-84
2022/08/14 11:21:27;;;;;;;10.60;10.30;;;30.30;99.90;;;;;;5006564;28;20241;-83
2022/08/14 11:23:56;;;;;;;10.48;10.18;;;30.60;99.90;;;;;;5005920;28;20249;-84
2022/08/14 11:26:26;;;;;;;10.50;10.20;;;30.70;99.90;;;;;;5005683;28;20260;-84
2022/08/14 11:28:56;;;;;;;10.40;10.10;;;30.60;99.90;;;;;;5005494;28;20247;-84
2022/08/14 11:31:24;;;;;;;10.50;10.20;;;30.40;99.90;;;;;;5005707;28;20240;-84
2022/08/14 11:34:03;;;;;;;10.40;10.10;;;30.20;99.90;;;;;;5006401;28;20237;-84
2022/08/14 11:36:32;;;;;;;10.25;9.95;;;30.00;99.90;;;;;;5006993;28;21037;-84
2022/08/14 11:39:01;;;;;;;10.20;9.90;;;29.90;99.90;;;;;;5015625;28;20296;-84
2022/08/14 11:41:31;;;;;;;10.20;9.90;;;30.10;99.90;;;;;;5012867;28;20233;-84
2022/08/14 11:44:00;;;;;;;10.20;9.90;;;30.50;99.90;;;;;;5008608;28;20221;-85
2022/08/14 11:46:31;;;;;;;10.30;10.00;;;30.70;99.90;;;;;;5009103;28;20216;-85
2022/08/14 11:49:08;;;;;;;10.52;10.23;;;30.70;99.90;;;;;;5011708;28;20236;-85
2022/08/14 11:51:37;;;;;;;10.60;10.30;;;30.50;99.90;;;;;;5015776;28;20292;-85
2022/08/14 11:54:07;;;;;;;10.38;10.07;;;30.20;99.90;;;;;;5014532;28;20240;-85
2022/08/14 11:56:36;;;;;;;10.40;10.10;;;30.10;99.90;;;;;;5010263;28;20232;-85
2022/08/14 11:59:06;;;;;;;10.35;10.05;;;30.00;99.90;;;;;;5012551;28;20237;-85
2022/08/14 12:01:36;;;;;;;10.60;10.30;;;30.10;99.90;;;;;;5011256;28;20240;-85
2022/08/14 12:04:22;;;;;;;10.38;10.07;;;30.20;99.90;;;;;;5009811;28;20228;-85
2022/08/14 12:06:55;;;;;;;10.35;10.05;;;30.60;99.90;;;;;;5007880;28;20288;-85
2022/08/14 12:09:32;;;;;;;10.52;10.23;;;31.10;99.90;;;;;;5007340;28;20300;-85
2022/08/14 12:12:01;;;;;;;10.65;10.35;;;31.70;99.90;;;;;;5007576;28;20236;-85
2022/08/14 12:14:32;;;;;;;10.70;10.40;;;31.70;99.90;;;;;;5005871;28;20233;-85
2022/08/14 12:17:09;;;;;;;10.65;10.35;;;31.40;99.90;;;;;;5005989;28;20221;-85
2022/08/14 12:19:57;;;;;;;10.57;10.27;;;31.10;99.90;;;;;;5015522;28;20238;-86
2022/08/14 12:22:36;;;;;;;10.70;10.40;;;30.70;99.90;;;;;;5020682;28;20221;-84
2022/08/14 12:25:14;;;;;;;10.65;10.35;;;30.40;99.90;;;;;;5020103;28;20232;-85
2022/08/14 12:27:48;;;;;;;10.57;10.27;;;30.60;99.90;;;;;;5011435;28;20217;-85
2022/08/14 12:30:30;;;;;;;10.50;10.20;;;31.20;99.90;;;;;;5007822;28;20236;-85
2022/08/14 12:32:57;;;;;;;10.75;10.45;;;32.00;99.90;;;;;;5006353;28;20272;-85
2022/08/14 12:35:37;;;;;;;10.63;10.32;;;32.60;99.90;;;;;;5005829;28;20233;-84
2022/08/14 12:38:09;;;;;;;10.73;10.43;;;33.10;99.90;;;;;;5006336;28;20233;-84
2022/08/14 12:40:54;;;;;;;10.75;10.45;;;33.70;99.90;;;;;;5005850;28;20233;-84
2022/08/14 12:43:22;;;;;;;10.65;10.35;;;34.00;99.90;;;;;;5004401;28;20232;-84
2022/08/14 12:45:53;;;;;;;10.50;10.20;;;33.70;99.90;;;;;;5004328;28;20260;-83
2022/08/14 12:48:23;;;;;;;10.52;10.23;;;33.70;99.90;;;;;;5005050;28;20767;-83
2022/08/14 12:50:53;;;;;;;10.80;10.50;;;33.70;99.90;;;;;;5005578;28;20260;-84
2022/08/14 12:53:21;;;;;;;10.73;10.43;;;33.60;99.90;;;;;;5005539;28;20224;-83
2022/08/14 12:56:00;;;;;;;10.80;10.50;;;33.50;99.90;;;;;;5004454;28;20315;-83
2022/08/14 12:58:30;;;;;;;10.77;10.48;;;33.80;99.90;;;;;;5005347;28;20232;-83
2022/08/14 13:00:59;;;;;;;10.88;10.57;;;33.70;99.90;;;;;;5004863;28;20295;-84
2022/08/14 13:03:28;;;;;;;10.80;10.50;;;33.80;99.90;;;;;;5005510;28;20235;-83
2022/08/14 13:05:59;;;;;;;10.70;10.40;;;33.90;99.90;;;;;;5004328;28;20252;-83
2022/08/14 13:08:26;;;;;;;10.30;10.00;;;33.90;99.90;;;;;;5005236;28;20221;-83
2022/08/14 13:10:58;;;;;;;10.50;10.20;;;33.60;99.90;;;;;;5007010;28;20308;-84
2022/08/14 13:13:32;;;;;;;10.30;10.00;;;33.80;99.90;;;;;;5011393;28;20236;-84
2022/08/14 13:16:04;;;;;;;10.70;10.40;;;34.00;99.90;;;;;;5014293;28;20224;-84
2022/08/14 13:18:34;;;;;;;10.38;10.07;;;34.70;99.90;;;;;;5015700;28;20193;-84
2022/08/14 13:21:04;;;;;;;10.38;10.07;;;35.40;99.90;;;;;;5017731;28;20244;-84
2022/08/14 13:23:39;;;;;;;10.40;10.10;;;35.90;99.90;;;;;;5018453;28;20232;-84
2022/08/14 13:26:09;;;;;;;10.60;10.30;;;36.00;99.90;;;;;;5018708;28;20223;-85
2022/08/14 13:28:41;;;;;;;10.73;10.43;;;36.00;99.90;;;;;;5017670;28;20216;-85
2022/08/14 13:31:10;;;;;;;10.93;10.63;;;35.90;99.90;;;;;;5017561;28;20238;-85
2022/08/14 13:33:38;;;;;;;10.75;10.45;;;35.20;99.90;;;;;;5014546;28;20233;-84